createdAt,value
2022-08-01T00:03:32.744Z,2.5
2022-08-01T00:09:28.967Z,2.4
2022-08-01T00:15:20.270Z,3.1
2022-08-01T00:21:13.152Z,2.9
2022-08-01T00:27:03.226Z,2.7
2022-08-01T00:32:54.382Z,2.3
2022-08-01T00:38:46.645Z,3.5
2022-08-01T00:44:37.311Z,4.8
2022-08-01T00:50:29.839Z,4.1
2022-08-01T00:56:21.036Z,3.7
2022-08-01T01:02:19.843Z,4
2022-08-01T01:08:10.405Z,1.6
2022-08-01T01:13:59.788Z,3.8
2022-08-01T01:19:49.452Z,3.5
2022-08-01T01:25:38.319Z,3.6
2022-08-01T01:31:29.526Z,3.6
2022-08-01T01:37:22.701Z,4.1
2022-08-01T01:43:14.064Z,4
2022-08-01T01:49:06.719Z,2.8
2022-08-01T01:54:57.748Z,5
2022-08-01T02:00:51.787Z,3.2
2022-08-01T02:06:41.959Z,4
2022-08-01T02:12:34.111Z,3
2022-08-01T02:18:29.123Z,2.7
2022-08-01T02:24:18.814Z,3.3
2022-08-01T02:30:16.229Z,3.1
2022-08-01T02:36:36.962Z,4.9
2022-08-01T02:42:25.628Z,3.7
2022-08-01T02:48:16.495Z,4.3
2022-08-01T02:54:07.232Z,3.8
2022-08-01T03:00:01.611Z,4.3
2022-08-01T03:05:51.548Z,6.6
2022-08-01T03:11:42.285Z,5.2
2022-08-01T03:17:33.419Z,4.8
2022-08-01T03:23:40.728Z,5.5
2022-08-01T03:29:30.333Z,5.1
2022-08-01T03:36:31.431Z,5.1
2022-08-01T03:42:22.380Z,4.2
2022-08-01T03:48:13.281Z,5.9
2022-08-01T03:54:05.259Z,5.1
2022-08-01T03:59:56.594Z,6.8
2022-08-01T04:05:47.745Z,7.2
2022-08-01T04:11:40.154Z,5.3
2022-08-01T04:17:31.485Z,6.6
2022-08-01T04:23:22.530Z,8.1
2022-08-01T04:29:12.774Z,7.6
2022-08-01T04:36:03.129Z,10.6
2022-08-01T04:41:54.166Z,8.9
2022-08-01T04:47:44.991Z,7.8
2022-08-01T04:53:36.197Z,7.5
2022-08-01T04:59:28.265Z,8.2
2022-08-01T05:05:19.391Z,7.8
2022-08-01T05:11:10.245Z,8.4
2022-08-01T05:17:01.039Z,8.3
2022-08-01T05:22:52.576Z,8.1
2022-08-01T05:28:45.471Z,8.4
2022-08-01T05:34:36.534Z,9.9
2022-08-01T05:40:28.027Z,11
2022-08-01T05:46:19.881Z,11.8
2022-08-01T05:52:16.179Z,12.4
2022-08-01T05:58:07.154Z,12.1
2022-08-01T06:04:02.295Z,11.2
2022-08-01T06:09:54.964Z,10.6
2022-08-01T06:15:46.021Z,12
2022-08-01T06:21:38.860Z,12.2
2022-08-01T06:27:30.969Z,14.5
2022-08-01T06:33:23.357Z,13.2
2022-08-01T06:39:14.509Z,13.2
2022-08-01T06:45:07.164Z,12.6
2022-08-01T06:50:58.079Z,12.8
2022-08-01T06:56:49.277Z,13.3
2022-08-01T07:02:40.870Z,15.7
2022-08-01T07:08:33.340Z,16
2022-08-01T07:14:24.550Z,14.3
2022-08-01T07:20:21.087Z,15.6
2022-08-01T07:26:14.020Z,15.5
2022-08-01T07:32:05.011Z,17
2022-08-01T07:37:59.116Z,16
2022-08-01T07:44:06.550Z,14.2
2022-08-01T07:49:56.037Z,14.8
2022-08-01T07:55:50.585Z,14.7
2022-08-01T08:01:43.483Z,13.1
2022-08-01T08:07:37.369Z,13.4
2022-08-01T08:13:28.495Z,12.1
2022-08-01T08:19:20.361Z,14.9
2022-08-01T08:25:31.792Z,13.3
2022-08-01T08:31:56.976Z,13.7
2022-08-01T08:37:59.722Z,11.8
2022-08-01T08:43:49.863Z,15.9
2022-08-01T08:49:52.056Z,12.9
2022-08-01T08:56:00.623Z,11.3
2022-08-01T09:01:50.529Z,10.5
2022-08-01T09:07:41.420Z,11.1
2022-08-01T09:13:36.172Z,10.6
2022-08-01T09:19:47.228Z,10.9
2022-08-01T09:25:53.472Z,11.2
2022-08-01T09:31:55.719Z,10.9
2022-08-01T09:37:52.343Z,8.9
2022-08-01T09:43:43.764Z,8
2022-08-01T09:49:59.341Z,8.3
2022-08-01T09:55:49.035Z,6.9
2022-08-01T10:01:46.383Z,8.3
2022-08-01T10:07:48.521Z,9.9
2022-08-01T10:13:41.999Z,10.9
2022-08-01T10:19:35.982Z,10.1
2022-08-01T10:25:50.234Z,8.3
2022-08-01T10:31:54.270Z,8.5
2022-08-01T10:37:57.576Z,8.2
2022-08-01T10:43:52.771Z,7.1
2022-08-01T10:49:45.887Z,7.5
2022-08-01T10:55:43.068Z,6.9
2022-08-01T11:01:37.429Z,8.6
2022-08-01T11:07:39.735Z,8.1
2022-08-01T11:13:38.158Z,7.7
2022-08-01T11:19:33.748Z,6.4
2022-08-01T11:26:14.246Z,9
2022-08-01T11:32:04.351Z,12.7
2022-08-01T11:38:00.361Z,10
2022-08-01T11:43:57.618Z,9.1
2022-08-01T11:49:54.169Z,9.3
2022-08-01T11:55:57.721Z,9.4
2022-08-01T12:01:53.415Z,9.8
2022-08-01T12:07:47.161Z,7.1
2022-08-01T12:13:38.913Z,7
2022-08-01T12:19:30.128Z,8.9
2022-08-01T12:25:22.140Z,11.3
2022-08-01T12:31:17.748Z,9.7
2022-08-01T12:37:10.340Z,10.2
2022-08-01T12:43:01.742Z,8.8
2022-08-01T12:48:53.776Z,9.8
2022-08-01T12:54:46.678Z,9.3
2022-08-01T13:00:37.879Z,7.7
2022-08-01T13:06:29.389Z,11.4
2022-08-01T13:12:19.560Z,9.3
2022-08-01T13:18:11.447Z,9.2
2022-08-01T13:24:08.845Z,8.7
2022-08-01T13:29:59.982Z,8.7
2022-08-01T13:35:51.568Z,8.8
2022-08-01T13:41:44.850Z,6.8
2022-08-01T13:47:37.628Z,6.7
2022-08-01T13:53:52.231Z,8
2022-08-01T13:59:44.046Z,7.6
2022-08-01T14:05:34.945Z,7.6
2022-08-01T14:11:26.171Z,8.9
2022-08-01T14:17:25.027Z,7.8
2022-08-01T14:23:18.267Z,7.4
2022-08-01T14:29:08.811Z,7.4
2022-08-01T14:35:00.136Z,7.2
2022-08-01T14:40:53.207Z,8
2022-08-01T14:47:02.910Z,5.7
2022-08-01T14:53:11.129Z,6.4
2022-08-01T14:59:02.286Z,8.3
2022-08-01T15:05:09.768Z,6
2022-08-01T15:11:01.373Z,4.5
2022-08-01T15:16:52.686Z,5.3
2022-08-01T15:23:02.378Z,4.7
2022-08-01T15:29:13.298Z,4.3
2022-08-01T15:35:28.059Z,4.6
2022-08-01T15:41:39.477Z,7.4
2022-08-01T15:47:45.470Z,6.7
2022-08-01T15:53:37.921Z,5.4
2022-08-01T15:59:29.866Z,7
2022-08-01T16:05:25.244Z,7
2022-08-01T16:11:16.405Z,5.6
2022-08-01T16:17:09.196Z,3.9
2022-08-01T16:23:01.656Z,7.7
2022-08-01T16:28:53.161Z,8.2
2022-08-01T16:34:51.564Z,5.9
2022-08-01T16:40:52.776Z,5.3
2022-08-01T16:46:44.973Z,7.1
2022-08-01T16:52:46.873Z,4.5
2022-08-01T16:58:37.388Z,7.5
2022-08-01T17:04:29.583Z,5.3
2022-08-01T17:10:21.159Z,4.4
2022-08-01T17:16:12.117Z,3.9
2022-08-01T17:22:02.080Z,4.3
2022-08-01T17:27:53.410Z,5
2022-08-01T17:33:57.213Z,4.2
2022-08-01T17:39:46.320Z,3.7
2022-08-01T17:45:54.845Z,4.3
2022-08-01T17:51:47.583Z,4.4
2022-08-01T17:57:38.237Z,5.1
2022-08-01T18:03:44.244Z,4.5
2022-08-01T18:09:47.838Z,6.3
2022-08-01T18:15:40.684Z,3.6
2022-08-01T18:21:31.340Z,3.9
2022-08-01T18:27:23.164Z,5.2
2022-08-01T18:34:05.735Z,4.2
2022-08-01T18:39:59.750Z,4.3
2022-08-01T18:47:01.964Z,4
2022-08-01T18:52:51.734Z,4.7
2022-08-01T18:58:42.202Z,4.4
2022-08-01T19:04:33.392Z,5.3
2022-08-01T19:10:23.907Z,5.8
2022-08-01T19:16:15.153Z,6
2022-08-01T19:22:05.331Z,5.4
2022-08-01T19:27:57.896Z,5
2022-08-01T19:33:49.723Z,4.4
2022-08-01T19:39:40.972Z,4.9
2022-08-01T19:45:32.104Z,5.8
2022-08-01T19:51:33.026Z,6.3
2022-08-01T19:57:23.379Z,4.7
2022-08-01T20:03:13.603Z,4.7
2022-08-01T20:09:05.238Z,5.9
2022-08-01T20:14:56.938Z,6.2
2022-08-01T20:20:47.507Z,4.8
2022-08-01T20:26:38.740Z,5
2022-08-01T20:32:29.013Z,7
2022-08-01T20:38:24.598Z,6.1
2022-08-01T20:44:18.213Z,6.8
2022-08-01T20:50:56.550Z,7.1
2022-08-01T20:56:45.116Z,5.4
2022-08-01T21:02:37.490Z,5
2022-08-01T21:08:27.772Z,5.4
2022-08-01T21:14:19.509Z,6.6
2022-08-01T21:20:09.842Z,5.5
2022-08-01T21:26:00.445Z,6.6
2022-08-01T21:31:50.232Z,6.4
2022-08-01T21:37:39.482Z,6.3
2022-08-01T21:43:28.601Z,4.9
2022-08-01T21:49:18.698Z,6.6
2022-08-01T21:55:18.510Z,6.9
2022-08-01T22:01:23.434Z,5.5
2022-08-01T22:07:14.828Z,7.3
2022-08-01T22:13:07.368Z,5.2
2022-08-01T22:18:59.794Z,5.6
2022-08-01T22:24:51.603Z,7.1
2022-08-01T22:30:42.683Z,4.6
2022-08-01T22:36:33.728Z,4.3
2022-08-01T22:42:25.528Z,7.1
2022-08-01T22:48:16.951Z,5.8
2022-08-01T22:54:11.339Z,5.7
2022-08-01T23:00:02.055Z,4.9
2022-08-01T23:05:58.442Z,5.7
2022-08-01T23:11:50.287Z,4.7
2022-08-01T23:17:41.550Z,5.1
2022-08-01T23:23:38.222Z,5
2022-08-01T23:29:29.899Z,5
2022-08-01T23:35:20.240Z,5.4
2022-08-01T23:41:10.672Z,6.4
2022-08-01T23:47:01.633Z,3.4
2022-08-01T23:52:55.114Z,4.6
2022-08-01T23:58:48.659Z,4.9
